aviador You're here:

KAWM Decoded Metar

W MEMPHIS MUNI in AR, USA
Report Time2018-01-18 12:53:00
UTC Time2018-01-18 13:59:35
Flight Rules vfr VFR
WindCalm
Visibility9999 m
Phenomena:N/A
Clouds:N/A
Expected CloudBase > 400 ft AGL from Temp-Dew spread
CeilingNone
Temp-12°C (ISA -27)
Dew Point-13°C (92% RH)
AAT-15.3°C
QNH1035 hPa
Density Alt-3,848 ft
Elevation213 ft
Report Wrong Elevation
Raw Report
KAWM 181253Z AUTO 00000KT 8SM CLR M12/M13 A3057 RMK AO2 SLP358
I1000 T11221128 TSNO $=

Extra information for KAWM:More info

Metar Taf Metar & Taf Last 4 Metars F.Rules Stats Wind Profile Meteogram Temp Stats Airport Information Weather charts Add Link Nearby VenuesMetar ALERT Operation Metar Decoded Social comments

AIRNAV info for KAWM